Portada
METAR-TAF:

METAR-TAF

Aeroports :

Nagasaki, Japó

latitud: 32-55N, longitud: 129-55E, altitud: 2 m

Observació

L'informe es va fer fa 36 minuts, a les 03:00 UTC
Vent 8 kt del Sud-Est
Temperatura 14°C
Humitat 77%
Pressió 1017 hPa
Visibilitat 10 km o més
Escasses núvols a una alçada de 4000 ft
Núvols disperses a una alçada de 6000 ft
Cel ennuvolat a una alçada de 18000 ft

METAR: RJFU 110300Z 14008KT 9999 FEW040 SCT060 BKN180 14/10 Q1017

Hora: 12:36 (03:36 UTC)

Pronòstic

L'informe es va fer fa 4 hores i 31 minuts, a les 23:05 UTC
Pronòstic vàlid del 11 a les 00 UTC al 12 a les 06 UTC
Vent 8 kt del Sud-Est
Visibilitat 10 km o més
Escasses núvols a una alçada de 3000 ft
Evolucionant progressivament
l' 11 a les 03 UTC al 11 a les 05 UTC
Vent 7 kt del Oest/Sud-Oest
Evolucionant progressivament
l' 11 a les 12 UTC al 11 a les 15 UTC
Vent 14 kt del Nord/Nord-Oest

TAF: RJFU 102305Z 1100/1206 14008KT 9999 FEW030 BECMG 1103/1105 24007KT BECMG 1112/1115 33014KT

Observacions i pronòstics meteorològics de més de 4000 aeroports (METAR i TAF).

Les estacions disponibles són els punts grocs i vermells al mapa.

Posi el ratolí al punt desitjat per veure el nom de l'estació.

Feu clic per veure les observacions i els pronòstics meteorològics.

Per canviar el mapa: feu clic els botons verds amb una creu de color negre per apropar; al botó verd amb un guió per allunyar la imatge; o en les fletxes verdes per a mapes adjacents.


METAR-TAF: